createdAt,value
2017-04-01T00:00:03.709Z,17.22
2017-04-01T00:00:31.956Z,17.24
2017-04-01T00:01:00.259Z,17.2
2017-04-01T00:01:28.467Z,17.22
2017-04-01T00:01:56.720Z,17.28
2017-04-01T00:02:25.007Z,17.28
2017-04-01T00:03:36.160Z,17.24
2017-04-01T00:04:04.412Z,17.14
2017-04-01T00:04:32.712Z,17.09
2017-04-01T00:05:00.857Z,17.13
2017-04-01T00:05:29.061Z,17.13
2017-04-01T00:05:57.264Z,17.14
2017-04-01T00:06:25.422Z,17.19
2017-04-01T00:06:53.634Z,17.24
2017-04-01T00:07:21.750Z,17.27
2017-04-01T00:07:49.906Z,17.14
2017-04-01T00:08:18.203Z,17.2
2017-04-01T00:09:29.261Z,17.13
2017-04-01T00:09:57.453Z,17.16
2017-04-01T00:10:25.575Z,17.12
2017-04-01T00:10:53.722Z,17.17
2017-04-01T00:11:22.026Z,17.1
2017-04-01T00:11:50.319Z,17.2
2017-04-01T00:12:18.563Z,17.16
2017-04-01T00:12:46.773Z,17.25
2017-04-01T00:13:15.073Z,17.2
2017-04-01T00:13:43.225Z,17.24
2017-04-01T00:14:11.420Z,17.14
2017-04-01T00:15:22.673Z,17.24
2017-04-01T00:15:50.836Z,17.22
2017-04-01T00:16:19.143Z,17.28
2017-04-01T00:16:47.283Z,17.22
2017-04-01T00:17:15.580Z,17.3
2017-04-01T00:17:43.677Z,17.25
2017-04-01T00:18:11.916Z,17.31
2017-04-01T00:18:40.220Z,17.27
2017-04-01T00:19:08.431Z,17.24
2017-04-01T00:19:36.593Z,17.24
2017-04-01T00:20:04.878Z,17.3
2017-04-01T00:21:16.128Z,17.28
2017-04-01T00:21:44.383Z,17.34
2017-04-01T00:22:12.598Z,17.32
2017-04-01T00:22:40.836Z,17.37
2017-04-01T00:23:08.946Z,17.32
2017-04-01T00:23:37.239Z,17.34
2017-04-01T00:24:05.474Z,17.32
2017-04-01T00:24:33.691Z,17.32
2017-04-01T00:25:01.808Z,17.37
2017-04-01T00:25:29.874Z,17.3
2017-04-01T00:25:57.976Z,17.28
2017-04-01T00:27:09.323Z,17.3
2017-04-01T00:27:37.579Z,17.3
2017-04-01T00:28:05.880Z,17.31
2017-04-01T00:28:34.024Z,17.37
2017-04-01T00:29:02.138Z,17.32
2017-04-01T00:29:30.140Z,17.34
2017-04-01T00:29:58.472Z,17.35
2017-04-01T00:30:26.678Z,17.28
2017-04-01T00:30:54.889Z,17.3
2017-04-01T00:31:23.045Z,17.31
2017-04-01T00:31:51.332Z,17.28
2017-04-01T00:33:02.487Z,17.28
2017-04-01T00:33:30.739Z,17.3
2017-04-01T00:33:58.862Z,17.34
2017-04-01T00:34:27.102Z,17.3
2017-04-01T00:34:55.397Z,17.31
2017-04-01T00:35:23.595Z,17.3
2017-04-01T00:35:51.835Z,17.27
2017-04-01T00:36:20.137Z,17.28
2017-04-01T00:36:48.252Z,17.27
2017-04-01T00:37:16.502Z,17.19
2017-04-01T00:37:44.608Z,17.31
2017-04-01T00:38:55.769Z,17.3
2017-04-01T00:39:24.034Z,17.32
2017-04-01T00:39:52.335Z,17.22
2017-04-01T00:40:20.478Z,17.19
2017-04-01T00:40:48.791Z,17.22
2017-04-01T00:41:16.914Z,17.2
2017-04-01T00:41:45.063Z,17.24
2017-04-01T00:42:13.292Z,17.24
2017-04-01T00:42:41.500Z,17.2
2017-04-01T00:43:09.654Z,17.17
2017-04-01T00:43:37.946Z,17.2
2017-04-01T00:44:49.195Z,17.19
2017-04-01T00:45:17.358Z,17.14
2017-04-01T00:45:45.390Z,17.2
2017-04-01T00:46:13.635Z,17.24
2017-04-01T00:46:41.755Z,17.2
2017-04-01T00:47:10.049Z,17.19
2017-04-01T00:47:38.202Z,17.17
2017-04-01T00:48:06.408Z,17.22
2017-04-01T00:48:34.725Z,17.14
2017-04-01T00:49:02.790Z,17.09
2017-04-01T00:49:30.897Z,17.14
2017-04-01T00:50:42.053Z,17.13
2017-04-01T00:51:10.312Z,17.07
2017-04-01T00:51:38.876Z,17.09
2017-04-01T00:52:07.110Z,17.14
2017-04-01T00:52:35.417Z,17.1
2017-04-01T00:53:03.519Z,17.12
2017-04-01T00:53:31.759Z,17.14
2017-04-01T00:54:00.066Z,17.12
2017-04-01T00:54:28.189Z,17.13
2017-04-01T00:54:56.350Z,17.16
2017-04-01T00:55:24.552Z,17.1
2017-04-01T00:56:35.708Z,17.06
2017-04-01T00:57:04.168Z,17.02
2017-04-01T00:57:32.475Z,17.1
2017-04-01T00:58:00.715Z,17.02
2017-04-01T00:58:28.927Z,17.13
2017-04-01T00:58:57.215Z,17.16
2017-04-01T00:59:25.363Z,17.13
2017-04-01T00:59:53.664Z,17.04
2017-04-01T01:00:21.967Z,16.99
2017-04-01T01:00:50.030Z,17.06
2017-04-01T01:01:18.138Z,17.07
2017-04-01T01:02:29.389Z,17.06
2017-04-01T01:02:57.465Z,17.02
2017-04-01T01:03:25.772Z,17.02
2017-04-01T01:03:53.917Z,17.01
2017-04-01T01:04:22.212Z,17.06
2017-04-01T01:04:50.316Z,17.04
2017-04-01T01:05:18.648Z,16.99
2017-04-01T01:05:46.851Z,17.02
2017-04-01T01:06:15.162Z,17.07
2017-04-01T01:06:43.315Z,17.13
2017-04-01T01:07:11.608Z,17.02
2017-04-01T01:08:22.667Z,17.13
2017-04-01T01:08:50.922Z,17.04
2017-04-01T01:09:19.047Z,17.07
2017-04-01T01:09:47.195Z,17.06
2017-04-01T01:10:15.397Z,17.09
2017-04-01T01:10:43.588Z,16.98
2017-04-01T01:11:11.738Z,16.99
2017-04-01T01:11:39.946Z,17.02
2017-04-01T01:12:08.248Z,17.02
2017-04-01T01:12:36.499Z,17.09
2017-04-01T01:13:04.603Z,16.99
2017-04-01T01:14:15.675Z,17.07
2017-04-01T01:14:43.930Z,17.02
2017-04-01T01:15:12.142Z,17.06
2017-04-01T01:15:40.376Z,17.06
2017-04-01T01:16:08.582Z,16.98
2017-04-01T01:16:36.789Z,17.06
2017-04-01T01:17:04.942Z,17.07
2017-04-01T01:17:33.055Z,17.02
2017-04-01T01:18:01.275Z,17.07
2017-04-01T01:18:29.347Z,17.1
2017-04-01T01:18:57.630Z,17.09
2017-04-01T01:20:08.880Z,17.06
2017-04-01T01:20:37.140Z,17.04
2017-04-01T01:21:05.355Z,17.13
2017-04-01T01:21:33.406Z,17.04
2017-04-01T01:22:01.707Z,17.07
2017-04-01T01:22:29.903Z,17.02
2017-04-01T01:22:58.901Z,17.04
2017-04-01T01:23:27.205Z,17.07
2017-04-01T01:23:55.511Z,17.01
2017-04-01T01:24:23.667Z,16.99
2017-04-01T01:24:51.768Z,17.07
2017-04-01T01:26:02.924Z,17.06
2017-04-01T01:26:31.088Z,17.02
2017-04-01T01:26:59.395Z,17.04
2017-04-01T01:27:27.633Z,17.12
2017-04-01T01:27:55.936Z,16.98
2017-04-01T01:28:24.135Z,17.07
2017-04-01T01:28:52.464Z,17.04
2017-04-01T01:29:20.766Z,17.12
2017-04-01T01:29:48.977Z,17.12
2017-04-01T01:30:17.135Z,17.13
2017-04-01T01:30:45.435Z,17.14
2017-04-01T01:31:56.591Z,17.13
2017-04-01T01:32:24.851Z,17.02
2017-04-01T01:32:53.162Z,17.13
2017-04-01T01:33:21.400Z,17.02
2017-04-01T01:33:49.611Z,17.1
2017-04-01T01:34:17.806Z,17.04
2017-04-01T01:34:46.044Z,17.12
2017-04-01T01:35:14.341Z,17.02
2017-04-01T01:35:42.562Z,17.13
2017-04-01T01:36:10.533Z,17.06
2017-04-01T01:36:38.820Z,17.04
2017-04-01T01:37:49.881Z,17.12
2017-04-01T01:38:18.133Z,17.13
2017-04-01T01:38:46.438Z,17.13
2017-04-01T01:39:14.676Z,17.1
2017-04-01T01:39:42.886Z,17.09
2017-04-01T01:40:10.900Z,17.01
2017-04-01T01:40:39.139Z,17.13
2017-04-01T01:41:07.439Z,17.16
2017-04-01T01:41:35.750Z,17.14
2017-04-01T01:42:03.804Z,17.1
2017-04-01T01:42:31.910Z,17.12
2017-04-01T01:43:43.167Z,17.12
2017-04-01T01:44:11.424Z,17.13
2017-04-01T01:44:39.544Z,17.07
2017-04-01T01:45:07.688Z,17.2
2017-04-01T01:45:35.895Z,17.13
2017-04-01T01:46:03.996Z,17.17
2017-04-01T01:46:32.243Z,17.2
2017-04-01T01:47:00.448Z,17.16
2017-04-01T01:47:28.745Z,17.12
2017-04-01T01:47:56.905Z,17.17
2017-04-01T01:48:25.099Z,17.12
2017-04-01T01:49:36.264Z,17.12
2017-04-01T01:50:04.515Z,17.07
2017-04-01T01:50:32.820Z,17.1
2017-04-01T01:51:00.962Z,17.1
2017-04-01T01:51:29.263Z,17.13
2017-04-01T01:51:57.456Z,17.1
2017-04-01T01:52:25.521Z,17.13
2017-04-01T01:52:53.540Z,17.12
2017-04-01T01:53:21.846Z,17.17
2017-04-01T01:53:49.911Z,17.12
2017-04-01T01:54:18.105Z,17.04
2017-04-01T01:55:29.265Z,17.02
2017-04-01T01:55:57.523Z,17.06
2017-04-01T01:56:25.826Z,17.02
2017-04-01T01:56:54.059Z,17.04
2017-04-01T01:57:22.266Z,17.07
2017-04-01T01:57:50.560Z,17.06
2017-04-01T01:58:18.799Z,17.04
2017-04-01T01:58:47.009Z,17.06
2017-04-01T01:59:15.216Z,17.07
2017-04-01T01:59:43.279Z,17.07
2017-04-01T02:00:11.488Z,17.07
2017-04-01T02:01:22.735Z,16.95
2017-04-01T02:01:50.902Z,16.91
2017-04-01T02:02:19.205Z,17.01
2017-04-01T02:02:47.450Z,16.92
2017-04-01T02:03:15.659Z,16.97
2017-04-01T02:03:43.857Z,16.95
2017-04-01T02:04:11.913Z,17.02
2017-04-01T02:04:40.213Z,16.99
2017-04-01T02:05:08.420Z,16.98
2017-04-01T02:05:36.483Z,17.07
2017-04-01T02:06:04.489Z,16.92
2017-04-01T02:07:15.829Z,16.87
2017-04-01T02:07:44.080Z,16.99
2017-04-01T02:08:12.197Z,16.87
2017-04-01T02:08:40.337Z,16.94
2017-04-01T02:09:08.542Z,16.94
2017-04-01T02:09:36.732Z,16.94
2017-04-01T02:10:05.062Z,16.91
2017-04-01T02:10:33.373Z,16.95
2017-04-01T02:11:01.491Z,16.95
2017-04-01T02:11:29.644Z,16.91
2017-04-01T02:11:57.839Z,16.91
2017-04-01T02:13:09.089Z,16.9
2017-04-01T02:13:37.252Z,16.91
2017-04-01T02:14:05.469Z,16.91
2017-04-01T02:14:33.603Z,16.94
2017-04-01T02:15:01.811Z,16.94
2017-04-01T02:15:30.093Z,16.9
2017-04-01T02:15:58.238Z,16.97
2017-04-01T02:16:26.444Z,16.92
2017-04-01T02:16:54.561Z,16.9
2017-04-01T02:17:22.811Z,16.91
2017-04-01T02:17:51.098Z,16.88
2017-04-01T02:19:02.345Z,16.92
2017-04-01T02:19:30.597Z,16.9
2017-04-01T02:19:58.808Z,16.9
2017-04-01T02:20:27.043Z,16.91
2017-04-01T02:20:55.150Z,16.82
2017-04-01T02:21:23.257Z,16.91
2017-04-01T02:21:51.499Z,16.94
2017-04-01T02:22:19.711Z,16.92
2017-04-01T02:22:47.823Z,16.8
2017-04-01T02:23:16.074Z,16.91
2017-04-01T02:23:44.264Z,16.84
2017-04-01T02:24:55.513Z,16.91
2017-04-01T02:25:23.765Z,16.87
2017-04-01T02:25:52.064Z,16.88
2017-04-01T02:26:20.211Z,16.9
2017-04-01T02:26:48.505Z,16.87
2017-04-01T02:27:16.512Z,16.84
2017-04-01T02:27:44.757Z,16.88
2017-04-01T02:28:12.967Z,16.87
2017-04-01T02:28:41.178Z,16.87
2017-04-01T02:29:09.430Z,16.82
2017-04-01T02:29:37.722Z,16.74
2017-04-01T02:30:48.967Z,16.72
2017-04-01T02:31:16.944Z,16.76
2017-04-01T02:31:45.161Z,16.79
2017-04-01T02:32:13.298Z,16.79
2017-04-01T02:32:41.413Z,16.76
2017-04-01T02:33:09.611Z,16.74
2017-04-01T02:33:37.945Z,16.76
2017-04-01T02:34:06.062Z,16.79
2017-04-01T02:34:34.274Z,16.82
2017-04-01T02:35:02.518Z,16.83
2017-04-01T02:35:30.632Z,16.76
2017-04-01T02:36:41.702Z,16.77
2017-04-01T02:37:09.870Z,16.76
2017-04-01T02:37:38.169Z,16.79
2017-04-01T02:38:06.408Z,16.82
2017-04-01T02:38:34.710Z,16.74
2017-04-01T02:39:02.903Z,16.83
2017-04-01T02:39:31.060Z,16.77
2017-04-01T02:39:59.357Z,16.84
2017-04-01T02:40:27.469Z,16.83
2017-04-01T02:40:55.723Z,16.79
2017-04-01T02:41:24.018Z,16.8
2017-04-01T02:42:35.086Z,16.76
2017-04-01T02:43:03.340Z,16.79
2017-04-01T02:43:31.645Z,16.76
2017-04-01T02:43:59.789Z,16.8
2017-04-01T02:44:28.089Z,16.73
2017-04-01T02:44:56.377Z,16.79
2017-04-01T02:45:24.618Z,16.76
2017-04-01T02:45:52.920Z,16.76
2017-04-01T02:46:21.222Z,16.8
2017-04-01T02:46:49.469Z,16.83
2017-04-01T02:47:17.758Z,16.73
2017-04-01T02:48:29.009Z,16.77
2017-04-01T02:48:57.177Z,16.8
2017-04-01T02:49:25.479Z,16.72
2017-04-01T02:49:53.719Z,16.74
2017-04-01T02:50:21.920Z,16.79
2017-04-01T02:50:49.927Z,16.73
2017-04-01T02:51:18.167Z,16.76
2017-04-01T02:51:46.464Z,16.74
2017-04-01T02:52:14.672Z,16.73
2017-04-01T02:52:42.927Z,16.7
2017-04-01T02:53:11.128Z,16.74
2017-04-01T02:54:22.475Z,16.73
2017-04-01T02:54:50.728Z,16.73
2017-04-01T02:55:19.032Z,16.64
2017-04-01T02:55:47.268Z,16.74
2017-04-01T02:56:15.475Z,16.69
2017-04-01T02:56:44.111Z,16.67
2017-04-01T02:57:12.350Z,16.76
2017-04-01T02:57:40.650Z,16.76
2017-04-01T02:58:08.953Z,16.74
2017-04-01T02:58:37.109Z,16.73
2017-04-01T02:59:05.402Z,16.7
2017-04-01T03:00:16.459Z,16.76
2017-04-01T03:00:44.715Z,16.69
2017-04-01T03:01:12.926Z,16.69
2017-04-01T03:01:41.164Z,16.67
2017-04-01T03:02:09.463Z,16.72
2017-04-01T03:02:37.662Z,16.67
2017-04-01T03:03:05.904Z,16.72
2017-04-01T03:03:34.211Z,16.7
2017-04-01T03:04:02.419Z,16.74
2017-04-01T03:04:30.389Z,16.69
2017-04-01T03:04:58.677Z,16.72
2017-04-01T03:06:09.734Z,16.67
2017-04-01T03:06:37.989Z,16.7
2017-04-01T03:07:06.289Z,16.7
2017-04-01T03:07:34.341Z,16.72
2017-04-01T03:08:02.452Z,16.74
2017-04-01T03:08:30.739Z,16.76
2017-04-01T03:08:58.893Z,16.69
2017-04-01T03:09:27.103Z,16.69
2017-04-01T03:09:55.313Z,16.73
2017-04-01T03:10:23.467Z,16.65
2017-04-01T03:10:51.662Z,16.69
2017-04-01T03:12:02.721Z,16.73
2017-04-01T03:12:30.889Z,16.65
2017-04-01T03:12:59.098Z,16.76
2017-04-01T03:13:27.245Z,16.73
2017-04-01T03:13:55.542Z,16.74
2017-04-01T03:14:23.742Z,16.65
2017-04-01T03:14:51.980Z,16.74
2017-04-01T03:15:20.284Z,16.76
2017-04-01T03:15:48.406Z,16.77
2017-04-01T03:16:16.560Z,16.77
2017-04-01T03:16:44.852Z,16.73
2017-04-01T03:17:55.909Z,16.8
2017-04-01T03:18:24.171Z,16.79
2017-04-01T03:18:52.468Z,16.77
2017-04-01T03:19:20.704Z,16.79
2017-04-01T03:19:48.910Z,16.73
2017-04-01T03:20:16.923Z,16.76
2017-04-01T03:20:45.074Z,16.74
2017-04-01T03:21:13.281Z,16.79
2017-04-01T03:21:41.584Z,16.77
2017-04-01T03:22:09.744Z,16.82
2017-04-01T03:22:37.938Z,16.8
2017-04-01T03:23:49.096Z,16.74
2017-04-01T03:24:17.348Z,16.74
2017-04-01T03:24:45.554Z,16.83
2017-04-01T03:25:13.799Z,16.88
2017-04-01T03:25:42.002Z,16.84
2017-04-01T03:26:10.288Z,16.82
2017-04-01T03:26:38.522Z,16.83
2017-04-01T03:27:06.823Z,16.91
2017-04-01T03:27:35.125Z,16.9
2017-04-01T03:28:03.281Z,16.87
2017-04-01T03:28:31.481Z,16.88
2017-04-01T03:29:42.734Z,16.87
2017-04-01T03:30:10.988Z,16.87
2017-04-01T03:30:39.198Z,16.9
2017-04-01T03:31:07.342Z,16.91
2017-04-01T03:31:35.639Z,16.9
2017-04-01T03:32:03.829Z,16.88
2017-04-01T03:32:31.981Z,16.87
2017-04-01T03:33:00.283Z,16.88
2017-04-01T03:33:28.493Z,16.9
2017-04-01T03:33:56.740Z,16.98
2017-04-01T03:34:24.938Z,16.94
2017-04-01T03:35:36.097Z,16.94
2017-04-01T03:36:04.350Z,16.88
2017-04-01T03:36:32.650Z,16.87
2017-04-01T03:37:00.888Z,17.01
2017-04-01T03:37:29.098Z,16.88
2017-04-01T03:37:57.297Z,16.88
2017-04-01T03:38:25.539Z,16.9
2017-04-01T03:38:53.754Z,16.87
2017-04-01T03:39:21.964Z,16.92
2017-04-01T03:39:50.221Z,16.87
2017-04-01T03:40:18.329Z,16.98
2017-04-01T03:41:29.578Z,16.88
2017-04-01T03:41:57.740Z,16.9
2017-04-01T03:42:26.047Z,16.94
2017-04-01T03:42:54.320Z,16.88
2017-04-01T03:43:22.620Z,16.9
2017-04-01T03:43:50.818Z,17.02
2017-04-01T03:44:19.143Z,16.97
2017-04-01T03:44:47.356Z,17.01
2017-04-01T03:45:15.656Z,16.98
2017-04-01T03:45:43.821Z,16.98
2017-04-01T03:46:12.025Z,16.99
2017-04-01T03:47:23.081Z,16.98
2017-04-01T03:47:51.336Z,17.01
2017-04-01T03:48:19.555Z,16.99
2017-04-01T03:48:47.790Z,17.02
2017-04-01T03:49:16.089Z,17.07
2017-04-01T03:49:44.191Z,17.02
2017-04-01T03:50:12.431Z,17.01
2017-04-01T03:50:40.646Z,16.92
2017-04-01T03:51:08.951Z,16.98
2017-04-01T03:51:37.106Z,17.01
2017-04-01T03:52:05.314Z,17.02
2017-04-01T03:53:16.663Z,16.95
2017-04-01T03:53:44.915Z,16.91
2017-04-01T03:54:13.214Z,16.95
2017-04-01T03:54:41.358Z,16.99
2017-04-01T03:55:09.466Z,16.91
2017-04-01T03:55:37.752Z,16.94
2017-04-01T03:56:05.995Z,16.95
2017-04-01T03:56:34.202Z,16.97
2017-04-01T03:57:02.408Z,16.98
2017-04-01T03:57:30.468Z,16.92
2017-04-01T03:57:58.762Z,16.94
2017-04-01T03:59:09.922Z,16.97
2017-04-01T03:59:38.083Z,17.1
2017-04-01T04:00:06.392Z,17.09
2017-04-01T04:00:34.630Z,16.97
2017-04-01T04:01:02.841Z,16.95
2017-04-01T04:01:31.038Z,17.04
2017-04-01T04:01:59.277Z,17.09
2017-04-01T04:02:27.490Z,17.09
2017-04-01T04:02:55.619Z,17.09
2017-04-01T04:03:23.772Z,16.95
2017-04-01T04:03:52.060Z,17.1
2017-04-01T04:05:03.313Z,17.1
2017-04-01T04:05:31.565Z,17.06
2017-04-01T04:05:59.865Z,17.01
2017-04-01T04:06:28.011Z,17.13
2017-04-01T04:06:56.215Z,16.99
2017-04-01T04:07:24.411Z,17.02
2017-04-01T04:07:52.652Z,17.04
2017-04-01T04:08:20.958Z,17.06
2017-04-01T04:08:49.265Z,17.02
2017-04-01T04:09:17.524Z,17.04
2017-04-01T04:09:45.722Z,17.13
2017-04-01T04:10:56.880Z,17.12
2017-04-01T04:11:25.043Z,17.13
2017-04-01T04:11:53.259Z,17.14
2017-04-01T04:12:21.318Z,17.12
2017-04-01T04:12:49.519Z,17.1
2017-04-01T04:13:17.721Z,17.13
2017-04-01T04:13:45.963Z,17.13
2017-04-01T04:14:14.077Z,17.13
2017-04-01T04:14:42.379Z,17.12
2017-04-01T04:15:10.627Z,17.14
2017-04-01T04:15:38.914Z,17.1
2017-04-01T04:16:49.986Z,17.14
2017-04-01T04:17:18.240Z,17.24
2017-04-01T04:17:46.546Z,17.16
2017-04-01T04:18:14.690Z,17.19
2017-04-01T04:18:42.896Z,17.17
2017-04-01T04:19:11.003Z,17.25
2017-04-01T04:19:39.336Z,17.22
2017-04-01T04:20:07.545Z,17.22
2017-04-01T04:20:35.756Z,17.24
2017-04-01T04:21:03.915Z,17.24
2017-04-01T04:21:32.109Z,17.14
2017-04-01T04:22:43.357Z,17.24
2017-04-01T04:23:11.612Z,17.19
2017-04-01T04:23:39.919Z,17.2
2017-04-01T04:24:08.164Z,17.19
2017-04-01T04:24:36.369Z,17.19
2017-04-01T04:25:04.565Z,17.17
2017-04-01T04:25:32.805Z,17.2
2017-04-01T04:26:01.016Z,17.19
2017-04-01T04:26:29.221Z,17.22
2017-04-01T04:26:57.378Z,17.27
2017-04-01T04:27:25.579Z,17.24
2017-04-01T04:28:36.927Z,17.24
2017-04-01T04:29:05.185Z,17.2
2017-04-01T04:29:33.524Z,17.19
2017-04-01T04:30:01.726Z,17.2
2017-04-01T04:30:29.934Z,17.22
2017-04-01T04:30:58.222Z,17.27
2017-04-01T04:31:26.465Z,17.17
2017-04-01T04:31:54.678Z,17.22
2017-04-01T04:32:22.975Z,17.13
2017-04-01T04:32:51.223Z,17.16
2017-04-01T04:33:19.421Z,17.14
2017-04-01T04:34:30.575Z,17.17
2017-04-01T04:34:58.830Z,17.16
2017-04-01T04:35:27.133Z,17.27
2017-04-01T04:35:55.276Z,17.22
2017-04-01T04:36:23.576Z,17.19
2017-04-01T04:36:51.678Z,17.22
2017-04-01T04:37:20.013Z,17.3
2017-04-01T04:37:48.320Z,17.24
2017-04-01T04:38:16.625Z,17.22
2017-04-01T04:38:44.877Z,17.14
2017-04-01T04:39:13.167Z,17.09
2017-04-01T04:40:24.328Z,17.1
2017-04-01T04:40:52.583Z,17.1
2017-04-01T04:41:20.893Z,17.13
2017-04-01T04:41:49.031Z,17.13
2017-04-01T04:42:17.329Z,17.12
2017-04-01T04:42:45.527Z,17.14
2017-04-01T04:43:13.766Z,17.13
2017-04-01T04:43:42.067Z,17.12
2017-04-01T04:44:10.372Z,17.04
2017-04-01T04:44:38.623Z,17.07
2017-04-01T04:45:06.913Z,17.06
2017-04-01T04:46:18.067Z,17.07
2017-04-01T04:46:46.232Z,17.02
2017-04-01T04:47:14.539Z,17.12
2017-04-01T04:47:42.681Z,16.98
2017-04-01T04:48:10.888Z,17.07
2017-04-01T04:48:38.988Z,17.01
2017-04-01T04:49:07.230Z,17.04
2017-04-01T04:49:35.437Z,17.04
2017-04-01T04:50:03.743Z,17.06
2017-04-01T04:50:31.905Z,17.04
2017-04-01T04:51:00.196Z,17.01
2017-04-01T04:52:11.443Z,16.91
2017-04-01T04:52:39.608Z,16.94
2017-04-01T04:53:07.637Z,16.98
2017-04-01T04:53:35.870Z,16.95
2017-04-01T04:54:04.077Z,17.02
2017-04-01T04:54:32.176Z,16.97
2017-04-01T04:55:00.412Z,16.97
2017-04-01T04:55:28.523Z,16.94
2017-04-01T04:55:56.733Z,16.97
2017-04-01T04:56:24.804Z,16.9
2017-04-01T04:56:52.908Z,16.91
2017-04-01T04:58:03.974Z,16.9
2017-04-01T04:58:32.229Z,16.82
2017-04-01T04:59:00.528Z,16.88
2017-04-01T04:59:28.676Z,16.84
2017-04-01T04:59:56.883Z,16.84
2017-04-01T05:00:25.080Z,16.88
2017-04-01T05:00:53.321Z,16.82
2017-04-01T05:01:21.627Z,16.8
2017-04-01T05:01:49.743Z,16.83
2017-04-01T05:02:17.810Z,16.83
2017-04-01T05:02:46.101Z,16.74
2017-04-01T05:03:57.438Z,16.73
2017-04-01T05:04:25.603Z,16.77
2017-04-01T05:04:53.819Z,16.74
2017-04-01T05:05:21.970Z,16.79
2017-04-01T05:05:50.178Z,16.79
2017-04-01T05:06:18.373Z,16.76
2017-04-01T05:06:46.705Z,16.74
2017-04-01T05:07:15.008Z,16.76
2017-04-01T05:07:43.310Z,16.76
2017-04-01T05:08:11.466Z,16.76
2017-04-01T05:08:39.658Z,16.76
2017-04-01T05:09:50.817Z,16.84
2017-04-01T05:10:19.074Z,16.79
2017-04-01T05:10:47.279Z,16.79
2017-04-01T05:11:15.333Z,16.84
2017-04-01T05:11:43.632Z,16.87
2017-04-01T05:12:11.922Z,16.9
2017-04-01T05:12:40.067Z,16.84
2017-04-01T05:13:08.372Z,16.87
2017-04-01T05:13:36.396Z,16.83
2017-04-01T05:14:04.646Z,16.83
2017-04-01T05:14:32.847Z,16.9
2017-04-01T05:15:44.011Z,16.87
2017-04-01T05:16:12.268Z,16.91
2017-04-01T05:16:40.576Z,16.87
2017-04-01T05:17:08.808Z,16.91
2017-04-01T05:17:37.107Z,16.92
2017-04-01T05:18:05.304Z,16.94
2017-04-01T05:18:33.634Z,16.91
2017-04-01T05:19:01.848Z,16.95
2017-04-01T05:19:30.055Z,16.94
2017-04-01T05:19:58.119Z,16.94
2017-04-01T05:20:26.409Z,16.95
2017-04-01T05:21:37.750Z,16.94
2017-04-01T05:22:06.008Z,16.95
2017-04-01T05:22:34.218Z,16.92
2017-04-01T05:23:02.459Z,16.97
2017-04-01T05:23:30.758Z,16.91
2017-04-01T05:23:58.861Z,16.84
2017-04-01T05:24:27.194Z,16.91
2017-04-01T05:24:55.496Z,16.92
2017-04-01T05:25:23.796Z,16.94
2017-04-01T05:25:52.048Z,16.95
2017-04-01T05:26:20.337Z,16.84
2017-04-01T05:27:31.590Z,16.9
2017-04-01T05:27:59.842Z,16.84
2017-04-01T05:28:28.047Z,16.87
2017-04-01T05:28:56.289Z,16.84
2017-04-01T05:29:24.493Z,16.98
2017-04-01T05:29:52.784Z,16.95
2017-04-01T05:30:21.025Z,16.92
2017-04-01T05:30:49.235Z,16.94
2017-04-01T05:31:17.542Z,16.9
2017-04-01T05:31:45.698Z,16.88
2017-04-01T05:32:13.895Z,17.01
2017-04-01T05:33:25.150Z,17.06
2017-04-01T05:33:53.405Z,16.97
2017-04-01T05:34:21.710Z,17.01
2017-04-01T05:34:49.948Z,17.01
2017-04-01T05:35:18.163Z,17.04
2017-04-01T05:35:46.454Z,16.94
2017-04-01T05:36:14.692Z,17.01
2017-04-01T05:36:42.994Z,17.02
2017-04-01T05:37:11.206Z,17.01
2017-04-01T05:37:39.458Z,16.97
2017-04-01T05:38:07.750Z,16.92
2017-04-01T05:39:19.005Z,17.02
2017-04-01T05:39:47.260Z,17.06
2017-04-01T05:40:15.474Z,17.13
2017-04-01T05:40:43.713Z,17.04
2017-04-01T05:41:11.919Z,17.09
2017-04-01T05:41:40.210Z,17.12
2017-04-01T05:42:08.454Z,17.07
2017-04-01T05:42:36.766Z,17.06
2017-04-01T05:43:05.060Z,17.09
2017-04-01T05:43:33.314Z,17.13
2017-04-01T05:44:01.510Z,17.13
2017-04-01T05:45:12.663Z,17.02
2017-04-01T05:45:40.924Z,17.04
2017-04-01T05:46:09.136Z,17.07
2017-04-01T05:46:37.374Z,17.01
2017-04-01T05:47:05.483Z,17.07
2017-04-01T05:47:33.786Z,16.99
2017-04-01T05:48:02.015Z,17.09
2017-04-01T05:48:30.227Z,17.07
2017-04-01T05:48:58.430Z,17.07
2017-04-01T05:49:26.588Z,17.06
2017-04-01T05:49:54.881Z,17.04
2017-04-01T05:51:06.133Z,17.17
2017-04-01T05:51:34.384Z,16.99
2017-04-01T05:52:02.689Z,17.14
2017-04-01T05:52:30.925Z,16.99
2017-04-01T05:52:59.130Z,17.07
2017-04-01T05:53:27.237Z,17.13
2017-04-01T05:53:55.478Z,16.99
2017-04-01T05:54:23.778Z,17.16
2017-04-01T05:54:51.993Z,17.07
2017-04-01T05:55:20.144Z,17.12
2017-04-01T05:55:48.343Z,17.13
2017-04-01T05:56:59.686Z,17.12
2017-04-01T05:57:27.938Z,17.12
2017-04-01T05:57:56.150Z,17.13
2017-04-01T05:58:24.388Z,17.16
2017-04-01T05:58:52.593Z,17.07
2017-04-01T05:59:20.697Z,17.1
2017-04-01T05:59:48.749Z,17.12
2017-04-01T06:00:17.049Z,17.1
2017-04-01T06:00:45.351Z,17.06
2017-04-01T06:01:13.508Z,16.95
2017-04-01T06:01:41.709Z,17.06
2017-04-01T06:02:52.867Z,16.88
2017-04-01T06:03:21.121Z,16.94
2017-04-01T06:03:49.337Z,16.91
2017-04-01T06:04:17.479Z,16.9
2017-04-01T06:04:45.776Z,16.82
2017-04-01T06:05:14.065Z,16.92
2017-04-01T06:05:42.299Z,16.77
2017-04-01T06:06:10.607Z,16.79
2017-04-01T06:06:38.813Z,16.74
2017-04-01T06:07:06.970Z,16.73
2017-04-01T06:07:35.260Z,16.72
2017-04-01T06:08:46.322Z,16.69
2017-04-01T06:09:14.576Z,16.72
2017-04-01T06:09:42.878Z,16.65
2017-04-01T06:10:11.020Z,16.65
2017-04-01T06:10:39.136Z,16.69
2017-04-01T06:11:07.422Z,16.67
2017-04-01T06:11:35.666Z,16.72
2017-04-01T06:12:03.973Z,16.64
2017-04-01T06:12:32.274Z,16.64
2017-04-01T06:13:00.429Z,16.7
2017-04-01T06:13:28.627Z,16.69
2017-04-01T06:14:39.692Z,16.67
2017-04-01T06:15:07.942Z,16.69
2017-04-01T06:15:36.246Z,16.62
2017-04-01T06:16:04.480Z,16.69
2017-04-01T06:16:32.683Z,16.69
2017-04-01T06:17:00.882Z,16.69
2017-04-01T06:17:29.128Z,16.69
2017-04-01T06:17:57.431Z,16.72
2017-04-01T06:18:25.734Z,16.72
2017-04-01T06:18:53.984Z,16.67
2017-04-01T06:19:22.280Z,16.69
2017-04-01T06:20:33.621Z,16.64
2017-04-01T06:21:01.783Z,16.7
2017-04-01T06:21:30.092Z,16.64
2017-04-01T06:21:58.331Z,16.7
2017-04-01T06:22:26.629Z,16.64
2017-04-01T06:22:54.921Z,16.69
2017-04-01T06:23:23.070Z,16.64
2017-04-01T06:23:51.372Z,16.67
2017-04-01T06:24:19.582Z,16.67
2017-04-01T06:24:47.833Z,16.65
2017-04-01T06:25:16.024Z,16.65
2017-04-01T06:26:27.182Z,16.7
2017-04-01T06:26:55.436Z,16.67
2017-04-01T06:27:23.742Z,16.7
2017-04-01T06:27:51.977Z,16.67
2017-04-01T06:28:20.274Z,16.83
2017-04-01T06:28:48.282Z,16.76
2017-04-01T06:29:16.527Z,16.73
2017-04-01T06:29:44.735Z,16.69
2017-04-01T06:30:13.041Z,16.72
2017-04-01T06:30:41.109Z,16.7
2017-04-01T06:31:09.399Z,16.72
2017-04-01T06:32:20.556Z,16.67
2017-04-01T06:32:48.810Z,16.7
2017-04-01T06:33:17.025Z,16.72
2017-04-01T06:33:45.166Z,16.73
2017-04-01T06:34:13.376Z,16.69
2017-04-01T06:34:41.567Z,16.73
2017-04-01T06:35:09.810Z,16.72
2017-04-01T06:35:38.018Z,16.73
2017-04-01T06:36:06.139Z,16.72
2017-04-01T06:36:34.299Z,16.82
2017-04-01T06:37:02.496Z,16.69
2017-04-01T06:38:13.652Z,16.72
2017-04-01T06:38:41.904Z,16.69
2017-04-01T06:39:10.117Z,16.83
2017-04-01T06:39:38.352Z,16.73
2017-04-01T06:40:06.647Z,16.73
2017-04-01T06:40:34.846Z,16.79
2017-04-01T06:41:03.085Z,16.74
2017-04-01T06:41:31.296Z,16.7
2017-04-01T06:41:59.595Z,16.69
2017-04-01T06:42:27.658Z,16.74
2017-04-01T06:42:55.859Z,16.7
2017-04-01T06:44:07.201Z,16.67
2017-04-01T06:44:35.371Z,16.74
2017-04-01T06:45:03.673Z,16.73
2017-04-01T06:45:31.910Z,16.73
2017-04-01T06:46:00.119Z,16.69
2017-04-01T06:46:28.405Z,16.67
2017-04-01T06:46:56.549Z,16.69
2017-04-01T06:47:24.854Z,16.7
2017-04-01T06:47:52.967Z,16.73
2017-04-01T06:48:21.122Z,16.7
2017-04-01T06:48:49.317Z,16.69
2017-04-01T06:50:00.569Z,16.62
2017-04-01T06:50:28.821Z,16.65
2017-04-01T06:50:57.123Z,16.65
2017-04-01T06:51:25.359Z,16.72
2017-04-01T06:51:53.662Z,16.64
2017-04-01T06:52:21.949Z,16.69
2017-04-01T06:52:50.191Z,16.62
2017-04-01T06:53:18.494Z,16.74
2017-04-01T06:53:46.609Z,16.77
2017-04-01T06:54:14.762Z,16.67
2017-04-01T06:54:42.960Z,16.73